createdAt,value
2018-07-07T00:01:03.733Z,0.97
2018-07-07T00:03:31.432Z,0.77
2018-07-07T00:06:02.903Z,0.97
2018-07-07T00:08:30.455Z,3.97
2018-07-07T00:10:58.916Z,1.90
2018-07-07T00:13:26.776Z,1.30
2018-07-07T00:15:54.637Z,1.10
2018-07-07T00:18:22.212Z,1.00
2018-07-07T00:20:50.086Z,1.27
2018-07-07T00:23:17.616Z,0.97
2018-07-07T00:25:45.211Z,1.37
2018-07-07T00:28:12.784Z,0.80
2018-07-07T00:30:40.410Z,0.90
2018-07-07T00:33:08.056Z,1.00
2018-07-07T00:35:35.807Z,1.17
2018-07-07T00:38:03.451Z,1.00
2018-07-07T00:40:31.041Z,0.93
2018-07-07T00:42:58.624Z,0.80
2018-07-07T00:45:26.212Z,0.90
2018-07-07T00:47:53.820Z,0.83
2018-07-07T00:50:21.424Z,1.37
2018-07-07T00:52:48.981Z,2.60
2018-07-07T00:55:16.599Z,1.40
2018-07-07T00:57:44.228Z,1.10
2018-07-07T01:00:12.345Z,1.27
2018-07-07T01:02:39.975Z,1.10
2018-07-07T01:05:17.912Z,1.40
2018-07-07T01:07:45.494Z,1.50
2018-07-07T01:10:13.136Z,2.63
2018-07-07T01:12:40.687Z,1.13
2018-07-07T01:15:08.333Z,1.17
2018-07-07T01:17:36.006Z,1.70
2018-07-07T01:20:03.563Z,1.23
2018-07-07T01:22:31.128Z,1.70
2018-07-07T01:24:58.951Z,1.13
2018-07-07T01:27:26.522Z,1.03
2018-07-07T01:29:54.140Z,1.33
2018-07-07T01:32:21.726Z,1.27
2018-07-07T01:34:49.281Z,1.30
2018-07-07T01:37:16.959Z,2.00
2018-07-07T01:42:47.612Z,1.50
2018-07-07T01:45:15.295Z,2.40
2018-07-07T01:47:43.699Z,2.43
2018-07-07T01:50:11.320Z,1.80
2018-07-07T01:52:38.917Z,1.27
2018-07-07T01:55:06.464Z,1.63
2018-07-07T01:57:34.047Z,1.00
2018-07-07T02:00:01.599Z,0.63
2018-07-07T02:02:29.182Z,0.90
2018-07-07T02:04:56.704Z,0.77
2018-07-07T02:07:24.315Z,1.00
2018-07-07T02:09:51.884Z,0.73
2018-07-07T02:12:19.463Z,0.90
2018-07-07T02:14:47.016Z,1.33
2018-07-07T02:17:14.737Z,0.90
2018-07-07T02:19:42.302Z,0.80
2018-07-07T02:22:11.231Z,0.90
2018-07-07T02:24:38.800Z,0.70
2018-07-07T02:27:06.371Z,0.80
2018-07-07T02:29:33.900Z,0.93
2018-07-07T02:32:01.488Z,0.73
2018-07-07T02:34:29.069Z,0.80
2018-07-07T02:36:56.639Z,0.70
2018-07-07T02:39:24.199Z,1.20
2018-07-07T02:41:51.780Z,1.13
2018-07-07T02:44:19.355Z,0.80
2018-07-07T02:46:47.035Z,0.90
2018-07-07T02:49:14.699Z,0.90
2018-07-07T02:51:42.299Z,0.90
2018-07-07T02:54:09.899Z,0.80
2018-07-07T02:56:37.473Z,0.60
2018-07-07T02:59:05.027Z,0.77
2018-07-07T03:01:32.615Z,0.80
2018-07-07T03:04:00.164Z,1.07
2018-07-07T03:06:27.765Z,1.90
2018-07-07T03:08:55.397Z,1.17
2018-07-07T03:11:22.975Z,1.40
2018-07-07T03:13:50.596Z,0.90
2018-07-07T03:16:18.226Z,1.90
2018-07-07T03:18:46.493Z,1.13
2018-07-07T03:21:14.137Z,0.80
2018-07-07T03:23:41.728Z,1.73
2018-07-07T03:26:09.315Z,1.50
2018-07-07T03:28:36.879Z,1.30
2018-07-07T03:31:04.471Z,1.03
2018-07-07T03:33:32.565Z,1.97
2018-07-07T03:36:00.268Z,1.30
2018-07-07T03:38:27.823Z,1.27
2018-07-07T03:40:55.684Z,1.30
2018-07-07T03:43:23.253Z,1.23
2018-07-07T03:45:51.217Z,1.03
2018-07-07T03:48:18.803Z,1.10
2018-07-07T03:50:48.338Z,1.17
2018-07-07T03:53:15.956Z,1.00
2018-07-07T03:55:43.563Z,0.80
2018-07-07T03:58:11.155Z,1.20
2018-07-07T04:00:38.804Z,2.27
2018-07-07T04:03:06.432Z,2.10
2018-07-07T04:05:34.016Z,1.50
2018-07-07T04:08:01.592Z,2.00
2018-07-07T04:10:29.144Z,1.17
2018-07-07T04:12:56.811Z,2.23
2018-07-07T04:15:24.465Z,2.50
2018-07-07T04:17:52.152Z,3.07
2018-07-07T04:20:19.739Z,4.40
2018-07-07T04:22:47.312Z,3.17
2018-07-07T04:25:14.949Z,1.47
2018-07-07T04:27:42.535Z,1.60
2018-07-07T04:30:10.122Z,1.83
2018-07-07T04:32:37.967Z,1.90
2018-07-07T04:35:05.524Z,3.07
2018-07-07T04:37:33.123Z,6.33
2018-07-07T04:40:00.832Z,5.50
2018-07-07T04:42:29.006Z,3.90
2018-07-07T04:44:56.780Z,3.10
2018-07-07T04:47:24.524Z,2.13
2018-07-07T04:49:52.161Z,3.30
2018-07-07T04:52:19.762Z,5.20
2018-07-07T04:54:47.323Z,4.90
2018-07-07T04:57:14.984Z,7.67
2018-07-07T04:59:42.713Z,9.90
2018-07-07T05:02:10.285Z,8.73
2018-07-07T05:04:37.950Z,8.27
2018-07-07T05:07:05.479Z,7.80
2018-07-07T05:09:33.066Z,6.30
2018-07-07T05:12:00.654Z,14.77
2018-07-07T05:14:28.228Z,9.77
2018-07-07T05:16:56.050Z,10.37
2018-07-07T05:19:23.673Z,10.43
2018-07-07T05:21:51.273Z,9.73
2018-07-07T05:24:18.855Z,7.70
2018-07-07T05:26:46.475Z,6.23
2018-07-07T05:29:14.065Z,12.73
2018-07-07T05:31:41.852Z,11.73
2018-07-07T05:34:09.914Z,11.37
2018-07-07T05:36:37.652Z,10.93
2018-07-07T05:39:06.027Z,10.67
2018-07-07T05:41:33.602Z,11.77
2018-07-07T05:44:01.217Z,11.93
2018-07-07T05:46:28.840Z,12.77
2018-07-07T05:48:57.509Z,12.40
2018-07-07T05:51:25.108Z,11.83
2018-07-07T05:53:52.699Z,11.63
2018-07-07T05:56:20.286Z,13.20
2018-07-07T05:58:47.923Z,12.00
2018-07-07T06:01:16.641Z,10.80
2018-07-07T06:03:44.362Z,11.90
2018-07-07T06:06:11.976Z,11.17
2018-07-07T06:08:39.655Z,12.10
2018-07-07T06:11:07.208Z,11.40
2018-07-07T06:13:34.864Z,12.37
2018-07-07T06:16:02.412Z,11.93
2018-07-07T06:18:30.000Z,10.33
2018-07-07T06:20:57.581Z,12.43
2018-07-07T06:23:25.191Z,9.03
2018-07-07T06:25:52.739Z,12.70
2018-07-07T06:28:20.329Z,9.23
2018-07-07T06:30:47.862Z,10.43
2018-07-07T06:33:15.476Z,9.77
2018-07-07T06:35:43.101Z,11.53
2018-07-07T06:38:10.689Z,10.47
2018-07-07T06:40:38.385Z,10.63
2018-07-07T06:43:05.943Z,11.57
2018-07-07T06:45:33.508Z,10.43
2018-07-07T06:48:01.136Z,10.57
2018-07-07T06:50:28.688Z,8.33
2018-07-07T06:52:56.515Z,11.20
2018-07-07T06:55:24.249Z,9.77
2018-07-07T06:57:52.044Z,8.77
2018-07-07T07:00:19.612Z,7.67
2018-07-07T07:02:47.238Z,10.67
2018-07-07T07:05:14.832Z,7.77
2018-07-07T07:07:43.123Z,7.17
2018-07-07T07:10:10.885Z,6.77
2018-07-07T07:12:38.520Z,8.20
2018-07-07T07:15:06.072Z,7.83
2018-07-07T07:17:33.668Z,7.27
2018-07-07T07:20:01.291Z,6.33
2018-07-07T07:22:28.912Z,5.90
2018-07-07T07:24:56.678Z,4.90
2018-07-07T07:27:24.359Z,4.23
2018-07-07T07:29:51.961Z,4.53
2018-07-07T07:32:19.991Z,3.90
2018-07-07T07:34:47.696Z,4.90
2018-07-07T07:37:15.328Z,4.40
2018-07-07T07:39:42.917Z,3.90
2018-07-07T07:42:11.195Z,4.30
2018-07-07T07:44:38.960Z,3.57
2018-07-07T07:47:06.552Z,3.20
2018-07-07T07:49:34.246Z,2.90
2018-07-07T07:52:01.841Z,3.80
2018-07-07T07:54:29.442Z,3.43
2018-07-07T07:56:57.345Z,4.10
2018-07-07T07:59:24.891Z,3.87
2018-07-07T08:01:52.526Z,3.57
2018-07-07T08:04:20.152Z,3.70
2018-07-07T08:06:47.742Z,3.90
2018-07-07T08:09:15.429Z,3.20
2018-07-07T08:11:43.089Z,3.67
2018-07-07T08:14:10.984Z,3.13
2018-07-07T08:16:38.597Z,4.17
2018-07-07T08:19:06.155Z,3.67
2018-07-07T08:21:35.727Z,3.73
2018-07-07T08:24:03.334Z,4.80
2018-07-07T08:26:30.940Z,4.00
2018-07-07T08:28:58.479Z,2.60
2018-07-07T08:31:26.057Z,3.67
2018-07-07T08:33:53.599Z,3.37
2018-07-07T08:36:21.216Z,4.03
2018-07-07T08:38:48.819Z,4.30
2018-07-07T08:41:16.411Z,4.27
2018-07-07T08:43:43.968Z,3.73
2018-07-07T08:46:11.824Z,4.30
2018-07-07T08:48:43.857Z,3.00
2018-07-07T08:51:11.424Z,3.50
2018-07-07T08:53:39.083Z,3.37
2018-07-07T08:56:06.760Z,3.27
2018-07-07T08:58:34.336Z,2.50
2018-07-07T09:01:02.009Z,3.00
2018-07-07T09:03:29.546Z,4.40
2018-07-07T09:05:57.424Z,2.80
2018-07-07T09:08:25.096Z,4.40
2018-07-07T09:10:53.028Z,3.97
2018-07-07T09:13:20.606Z,3.13
2018-07-07T09:15:48.192Z,3.12
2018-07-07T09:18:16.103Z,3.10
2018-07-07T09:20:43.762Z,3.45
2018-07-07T09:23:11.564Z,3.77
2018-07-07T09:25:39.278Z,4.25
2018-07-07T09:28:08.755Z,3.87
2018-07-07T09:30:37.618Z,3.30
2018-07-07T09:33:07.516Z,3.30
2018-07-07T09:35:37.534Z,3.33
2018-07-07T09:38:05.144Z,3.90
2018-07-07T09:40:32.999Z,4.60
2018-07-07T09:43:01.176Z,3.60
2018-07-07T09:45:28.860Z,3.52
2018-07-07T09:47:58.572Z,3.05
2018-07-07T09:50:26.432Z,4.55
2018-07-07T09:52:54.963Z,4.37
2018-07-07T09:55:22.493Z,4.25
2018-07-07T09:57:50.064Z,3.98
2018-07-07T10:00:22.199Z,3.10
2018-07-07T10:02:50.354Z,4.20
2018-07-07T10:05:17.909Z,2.90
2018-07-07T10:07:45.481Z,3.97
2018-07-07T10:10:13.081Z,3.83
2018-07-07T10:12:40.654Z,4.03
2018-07-07T10:15:08.344Z,3.03
2018-07-07T10:17:36.083Z,2.60
2018-07-07T10:20:04.243Z,3.47
2018-07-07T10:22:34.159Z,2.72
2018-07-07T10:25:01.793Z,3.17
2018-07-07T10:27:29.498Z,3.98
2018-07-07T10:29:57.149Z,3.80
2018-07-07T10:32:24.716Z,3.40
2018-07-07T10:34:52.316Z,3.65
2018-07-07T10:37:19.991Z,2.62
2018-07-07T10:39:47.664Z,3.25
2018-07-07T10:42:19.183Z,3.55
2018-07-07T10:44:46.902Z,3.75
2018-07-07T10:47:14.555Z,3.25
2018-07-07T10:49:42.354Z,3.50
2018-07-07T10:52:10.160Z,2.92
2018-07-07T10:54:37.744Z,4.37
2018-07-07T10:57:05.820Z,3.67
2018-07-07T10:59:33.367Z,3.37
2018-07-07T11:02:01.041Z,2.80
2018-07-07T11:04:28.808Z,3.15
2018-07-07T11:06:56.574Z,3.05
2018-07-07T11:09:24.150Z,3.10
2018-07-07T11:11:51.849Z,3.62
2018-07-07T11:14:19.293Z,3.12
2018-07-07T11:16:47.801Z,3.60
2018-07-07T11:19:15.455Z,3.42
2018-07-07T11:21:43.209Z,3.22
2018-07-07T11:24:10.792Z,2.10
2018-07-07T11:26:38.567Z,3.30
2018-07-07T11:29:06.227Z,3.25
2018-07-07T11:31:33.771Z,2.98
2018-07-07T11:34:02.121Z,4.60
2018-07-07T11:36:29.837Z,3.25
2018-07-07T11:38:57.565Z,3.30
2018-07-07T11:41:25.384Z,3.72
2018-07-07T11:43:54.279Z,3.80
2018-07-07T11:46:21.996Z,3.50
2018-07-07T11:48:50.990Z,3.62
2018-07-07T11:51:18.916Z,3.60
2018-07-07T11:53:46.912Z,3.70
2018-07-07T11:56:15.295Z,3.27
2018-07-07T11:58:42.904Z,3.60
2018-07-07T12:01:10.456Z,2.92
2018-07-07T12:03:38.063Z,4.03
2018-07-07T12:06:05.631Z,3.02
2018-07-07T12:08:33.310Z,3.50
2018-07-07T12:11:01.183Z,4.37
2018-07-07T12:13:28.739Z,4.00
2018-07-07T12:15:56.550Z,3.50
2018-07-07T12:18:24.163Z,3.30
2018-07-07T12:20:51.817Z,4.60
2018-07-07T12:23:19.421Z,5.03
2018-07-07T12:25:47.074Z,3.90
2018-07-07T12:28:14.829Z,4.10
2018-07-07T12:30:42.632Z,4.78
2018-07-07T12:33:10.324Z,5.08
2018-07-07T12:35:38.011Z,4.87
2018-07-07T12:38:13.346Z,4.75
2018-07-07T12:40:41.082Z,3.90
2018-07-07T12:43:08.648Z,3.77
2018-07-07T12:45:36.203Z,5.50
2018-07-07T12:48:03.879Z,4.75
2018-07-07T12:50:33.474Z,4.45
2018-07-07T12:53:03.096Z,4.00
2018-07-07T12:55:30.668Z,4.42
2018-07-07T12:57:58.597Z,3.55
2018-07-07T13:00:26.264Z,4.10
2018-07-07T13:02:53.879Z,3.35
2018-07-07T13:05:21.532Z,3.10
2018-07-07T13:07:49.099Z,3.72
2018-07-07T13:10:16.799Z,3.90
2018-07-07T13:12:44.637Z,4.35
2018-07-07T13:15:12.578Z,4.20
2018-07-07T13:17:40.147Z,3.10
2018-07-07T13:20:07.709Z,2.95
2018-07-07T13:22:35.367Z,3.35
2018-07-07T13:25:03.013Z,3.42
2018-07-07T13:27:30.567Z,3.65
2018-07-07T13:29:58.460Z,3.15
2018-07-07T13:32:26.024Z,3.20
2018-07-07T13:34:53.586Z,3.10
2018-07-07T13:37:21.193Z,3.55
2018-07-07T13:39:48.968Z,3.27
2018-07-07T13:42:16.579Z,3.60
2018-07-07T13:44:44.166Z,3.20
2018-07-07T13:47:11.731Z,3.50
2018-07-07T13:49:41.348Z,3.08
2018-07-07T13:52:08.976Z,3.60
2018-07-07T13:54:36.719Z,3.60
2018-07-07T13:57:04.567Z,2.95
2018-07-07T13:59:32.150Z,3.55
2018-07-07T14:01:59.720Z,3.12
2018-07-07T14:04:27.351Z,3.22
2018-07-07T14:06:54.920Z,2.87
2018-07-07T14:09:22.583Z,2.60
2018-07-07T14:11:50.131Z,3.37
2018-07-07T14:14:17.907Z,3.22
2018-07-07T14:16:45.551Z,3.25
2018-07-07T14:19:13.268Z,2.80
2018-07-07T14:21:40.821Z,2.92
2018-07-07T14:24:08.450Z,3.12
2018-07-07T14:26:36.071Z,2.67
2018-07-07T14:29:03.746Z,3.02
2018-07-07T14:31:31.377Z,3.00
2018-07-07T14:33:58.969Z,3.25
2018-07-07T14:36:26.943Z,3.17
2018-07-07T14:38:55.679Z,3.12
2018-07-07T14:41:23.424Z,2.83
2018-07-07T14:43:58.729Z,2.98
2018-07-07T14:46:26.864Z,2.50
2018-07-07T14:48:54.437Z,3.00
2018-07-07T14:51:22.021Z,3.40
2018-07-07T14:53:49.887Z,2.90
2018-07-07T14:56:19.346Z,2.55
2018-07-07T14:58:47.352Z,3.10
2018-07-07T15:01:15.113Z,3.05
2018-07-07T15:03:42.835Z,3.25
2018-07-07T15:06:10.493Z,2.95
2018-07-07T15:08:38.258Z,2.87
2018-07-07T15:11:06.339Z,3.33
2018-07-07T15:13:34.397Z,3.83
2018-07-07T15:16:02.109Z,3.15
2018-07-07T15:18:30.364Z,2.92
2018-07-07T15:20:58.204Z,3.22
2018-07-07T15:23:25.706Z,2.80
2018-07-07T15:25:53.295Z,3.50
2018-07-07T15:28:21.016Z,3.33
2018-07-07T15:30:48.885Z,3.37
2018-07-07T15:33:23.351Z,3.50
2018-07-07T15:35:51.478Z,2.80
2018-07-07T15:38:19.083Z,2.90
2018-07-07T15:40:46.682Z,4.10
2018-07-07T15:43:14.274Z,3.33
2018-07-07T15:45:41.837Z,3.77
2018-07-07T15:48:09.451Z,3.12
2018-07-07T15:50:37.002Z,3.20
2018-07-07T15:53:04.736Z,4.08
2018-07-07T15:55:33.382Z,3.05
2018-07-07T15:58:00.957Z,3.30
2018-07-07T16:00:28.597Z,3.08
2018-07-07T16:02:56.663Z,3.98
2018-07-07T16:05:24.504Z,3.47
2018-07-07T16:07:52.067Z,3.30
2018-07-07T16:10:20.280Z,3.33
2018-07-07T16:12:47.892Z,3.20
2018-07-07T16:15:15.526Z,3.42
2018-07-07T16:17:43.082Z,3.72
2018-07-07T16:20:10.676Z,3.40
2018-07-07T16:22:38.256Z,3.65
2018-07-07T16:25:05.961Z,3.52
2018-07-07T16:27:33.575Z,3.33
2018-07-07T16:30:01.141Z,3.70
2018-07-07T16:32:28.691Z,3.35
2018-07-07T16:34:56.272Z,3.58
2018-07-07T16:37:23.851Z,3.87
2018-07-07T16:39:51.427Z,3.42
2018-07-07T16:42:19.133Z,2.92
2018-07-07T16:44:46.751Z,3.73
2018-07-07T16:47:14.500Z,2.57
2018-07-07T16:49:42.238Z,3.80
2018-07-07T16:52:09.856Z,3.10
2018-07-07T16:54:37.939Z,2.80
2018-07-07T16:57:05.583Z,3.40
2018-07-07T16:59:33.223Z,3.30
2018-07-07T17:02:00.916Z,3.50
2018-07-07T17:04:28.661Z,3.53
2018-07-07T17:06:56.506Z,3.83
2018-07-07T17:09:24.475Z,3.30
2018-07-07T17:11:52.639Z,3.80
2018-07-07T17:14:21.586Z,3.47
2018-07-07T17:16:49.157Z,3.00
2018-07-07T17:19:16.788Z,3.77
2018-07-07T17:21:45.273Z,3.10
2018-07-07T17:24:13.447Z,3.33
2018-07-07T17:26:41.028Z,3.57
2018-07-07T17:29:08.860Z,3.30
2018-07-07T17:31:36.647Z,3.37
2018-07-07T17:34:04.276Z,2.90
2018-07-07T17:36:32.057Z,3.00
2018-07-07T17:39:00.851Z,3.30
2018-07-07T17:41:28.956Z,3.70
2018-07-07T17:43:56.595Z,2.83
2018-07-07T17:46:24.514Z,2.80
2018-07-07T17:48:52.150Z,3.30
2018-07-07T17:51:20.001Z,2.07
2018-07-07T17:53:47.600Z,3.33
2018-07-07T17:56:16.038Z,2.63
2018-07-07T17:58:44.736Z,2.80
2018-07-07T18:01:13.460Z,2.67
2018-07-07T18:03:41.216Z,2.50
2018-07-07T18:06:08.817Z,2.30
2018-07-07T18:08:36.423Z,2.77
2018-07-07T18:11:04.208Z,2.07
2018-07-07T18:13:31.803Z,2.57
2018-07-07T18:15:59.432Z,2.40
2018-07-07T18:18:27.030Z,2.23
2018-07-07T18:20:54.651Z,2.33
2018-07-07T18:23:22.239Z,3.67
2018-07-07T18:25:49.995Z,3.07
2018-07-07T18:28:17.916Z,2.83
2018-07-07T18:30:45.534Z,2.90
2018-07-07T18:33:13.156Z,2.67
2018-07-07T18:35:40.761Z,3.10
2018-07-07T18:38:08.419Z,2.47
2018-07-07T18:40:36.255Z,2.47
2018-07-07T18:43:03.904Z,3.07
2018-07-07T18:45:31.468Z,2.17
2018-07-07T18:47:59.091Z,2.20
2018-07-07T18:50:26.732Z,2.13
2018-07-07T18:52:54.386Z,2.20
2018-07-07T18:55:22.054Z,2.30
2018-07-07T18:57:49.595Z,2.40
2018-07-07T19:00:17.718Z,2.10
2018-07-07T19:02:45.267Z,2.13
2018-07-07T19:05:12.952Z,2.07
2018-07-07T19:07:40.641Z,2.10
2018-07-07T19:10:08.230Z,2.10
2018-07-07T19:12:35.849Z,1.90
2018-07-07T19:15:09.237Z,2.20
2018-07-07T19:17:36.888Z,2.43
2018-07-07T19:20:04.471Z,2.17
2018-07-07T19:22:37.782Z,2.33
2018-07-07T19:25:11.042Z,2.40
2018-07-07T19:27:38.727Z,1.63
2018-07-07T19:30:06.392Z,2.03
2018-07-07T19:32:39.720Z,2.60
2018-07-07T19:35:12.865Z,2.50
2018-07-07T19:37:40.410Z,2.33
2018-07-07T19:40:08.054Z,2.47
2018-07-07T19:42:35.676Z,2.40
2018-07-07T19:45:03.340Z,2.33
2018-07-07T19:47:31.173Z,3.17
2018-07-07T19:49:58.783Z,1.97
2018-07-07T19:52:26.392Z,2.03
2018-07-07T19:54:53.991Z,2.53
2018-07-07T19:57:21.571Z,2.60
2018-07-07T19:59:49.381Z,2.50
2018-07-07T20:02:17.435Z,2.90
2018-07-07T20:04:45.072Z,2.53
2018-07-07T20:07:12.708Z,2.90
2018-07-07T20:09:40.315Z,2.30
2018-07-07T20:12:07.871Z,2.43
2018-07-07T20:14:35.445Z,2.57
2018-07-07T20:17:05.152Z,2.80
2018-07-07T20:20:42.419Z,2.93
2018-07-07T20:23:11.884Z,2.70
2018-07-07T20:25:39.923Z,3.30
2018-07-07T20:28:13.207Z,2.80
2018-07-07T20:30:40.780Z,3.10
2018-07-07T20:33:08.595Z,2.70
2018-07-07T20:35:36.446Z,3.10
2018-07-07T20:38:04.054Z,3.20
2018-07-07T20:40:31.706Z,3.33
2018-07-07T20:42:59.318Z,2.80
2018-07-07T20:45:27.089Z,2.77
2018-07-07T20:47:54.963Z,3.10
2018-07-07T20:50:22.611Z,2.87
2018-07-07T20:52:50.418Z,2.97
2018-07-07T20:55:18.111Z,3.50
2018-07-07T20:57:45.773Z,2.90
2018-07-07T21:00:13.591Z,2.70
2018-07-07T21:02:41.253Z,2.73
2018-07-07T21:05:09.363Z,2.60
2018-07-07T21:07:36.961Z,2.63
2018-07-07T21:10:04.626Z,2.90
2018-07-07T21:12:32.272Z,3.03
2018-07-07T21:15:00.081Z,2.40
2018-07-07T21:17:27.666Z,2.20
2018-07-07T21:19:55.268Z,2.70
2018-07-07T21:22:22.950Z,2.93
2018-07-07T21:24:50.563Z,2.47
2018-07-07T21:27:18.182Z,2.60
2018-07-07T21:29:45.776Z,2.50
2018-07-07T21:32:13.319Z,2.60
2018-07-07T21:34:41.044Z,2.60
2018-07-07T21:37:08.774Z,2.50
2018-07-07T21:39:36.438Z,2.97
2018-07-07T21:42:04.123Z,3.13
2018-07-07T21:44:31.689Z,3.50
2018-07-07T21:46:59.291Z,3.20
2018-07-07T21:49:26.921Z,2.83
2018-07-07T21:51:54.470Z,3.60
2018-07-07T21:54:22.055Z,3.13
2018-07-07T21:56:54.021Z,2.30
2018-07-07T21:59:22.062Z,2.93
2018-07-07T22:01:57.297Z,3.33
2018-07-07T22:04:34.544Z,3.90
2018-07-07T22:07:12.929Z,3.07
2018-07-07T22:09:41.103Z,3.70
2018-07-07T22:12:08.887Z,3.47
2018-07-07T22:14:36.465Z,3.23
2018-07-07T22:17:04.118Z,3.73
2018-07-07T22:19:31.696Z,3.40
2018-07-07T22:22:05.119Z,3.43
2018-07-07T22:24:32.725Z,3.50
2018-07-07T22:27:02.887Z,3.13
2018-07-07T22:29:30.491Z,2.60
2018-07-07T22:31:59.310Z,3.00
2018-07-07T22:34:31.035Z,3.03
2018-07-07T22:36:58.628Z,3.23
2018-07-07T22:39:26.296Z,2.40
2018-07-07T22:41:57.155Z,2.90
2018-07-07T22:44:24.751Z,2.70
2018-07-07T22:46:53.180Z,3.10
2018-07-07T22:49:20.888Z,2.83
2018-07-07T22:51:48.780Z,2.80
2018-07-07T22:54:16.811Z,2.80
2018-07-07T22:56:44.400Z,3.30
2018-07-07T22:59:12.706Z,3.23
2018-07-07T23:01:40.588Z,3.27
2018-07-07T23:04:08.180Z,3.40
2018-07-07T23:06:37.897Z,3.30
2018-07-07T23:09:06.725Z,3.57
2018-07-07T23:11:34.284Z,4.37
2018-07-07T23:14:01.991Z,3.63
2018-07-07T23:16:30.262Z,2.73
2018-07-07T23:18:57.836Z,3.40
2018-07-07T23:21:25.500Z,4.17
2018-07-07T23:23:53.079Z,3.50
2018-07-07T23:26:21.269Z,3.50
2018-07-07T23:28:48.847Z,3.60
2018-07-07T23:31:16.415Z,3.40
2018-07-07T23:33:44.057Z,3.93
2018-07-07T23:36:11.664Z,3.90
2018-07-07T23:38:39.905Z,3.20
2018-07-07T23:41:07.490Z,3.87
2018-07-07T23:43:35.059Z,3.97
2018-07-07T23:46:02.659Z,4.17
2018-07-07T23:48:30.385Z,3.10
2018-07-07T23:50:57.962Z,3.20
2018-07-07T23:53:25.560Z,3.07
2018-07-07T23:55:53.180Z,2.97
2018-07-07T23:58:21.352Z,2.57
